Hauptseite
METAR-TAF:

METAR-TAF

Flughäfen :

Fliegerhorst Nordholz

Nordholz, Deutschland

Breite: 53-46N, Länge: 008-40E, Höhe: 23 m

Beobachtung

Neuester Wetterbericht von vor 1 Stunde und 17 Minuten, um 20:20 UTC
Wind 14 kt aus Süd/Südwest, Böen bis zu 24 kt
Temperatur 9°C
Luftfeuchtigkeit 61%
Luftdruck 992 hPa
Sichtweite 10 km oder mehr
Durchbrochene Bewölkung in der Höhe von 12000 ft

METAR: ETMN 202020Z 20014G24KT 9999 BKN120 09/02 Q0992 BLU

Zeit: 22:37 (21:37 UTC)

Prognose

Neuester Wetterbericht von vor 4 Stunden und 9 Minuten, um 17:28 UTC
Gültige Prognose vom 20 um 18 UTC bis 21 um 03 UTC
Wind 15 kt aus Süd, Böen bis zu 30 kt
Sichtweite 10 km oder mehr
Aufgelockert bewölkt in der Höhe von 3000 ft
Durchbrochene Bewölkung in der Höhe von 5000 ft
Durchbrochene Bewölkung in der Höhe von 10000 ft

TAF: ETMN 201728Z 2018/2103 19015G30KT 9999 NSW SCT030 BKN050 BKN100

Wetterbeobachtungen und Prognosen von mehr als 4000 Flughäfen (METAR und TAF Bericht).

Die verfügbaren Stationen werden durch gelbe und rote Markierungen auf der Karte dargestellt.

Führen Sie die Maus auf sie, um den Namen der Station zu sehen.

Darauf klicken, um die Beobachtung von Wetterbeobachtungen und Prognosen zu sehen.

Um die Karte zu ändern : klicken Sie auf den grünen Tasten mit einem schwarzen Kreuz Zum Vergrößern, auf den grünen Button mit einem Gedankenstrich zu verkleinern, oder auf die grünen Pfeile für benachbarte Karten.


METAR-TAF: